Time;durP1;ratioP1;P1;durP2;ratioP2;P2;SDS_P1;SDS_P2;PMS_P1;PMS_P2;Temp;Humidity;BMP_temperature;BMP_pressure;BME280_temperature;BME280_humidity;BME280_pressure;Samples;Min_cycle;Max_cycle;Signal;HPM_P1;HPM_P2
2022/08/26 00:01:32;;;;;;;0.47;0.10;;;23.90;87.50;;;;;;4911545;29;20028;-73
2022/08/26 00:04:00;;;;;;;0.65;0.10;;;24.10;87.10;;;;;;4913108;29;20484;-73
2022/08/26 00:06:29;;;;;;;1.35;0.25;;;24.40;88.20;;;;;;4910605;29;20055;-73
2022/08/26 00:08:57;;;;;;;0.60;0.10;;;24.80;85.80;;;;;;4914551;29;20084;-74
2022/08/26 00:11:25;;;;;;;1.50;0.03;;;24.10;87.70;;;;;;4904639;29;20076;-73
2022/08/26 00:13:54;;;;;;;0.32;0.13;;;23.70;87.10;;;;;;4898021;29;20130;-72
2022/08/26 00:16:22;;;;;;;0.00;0.00;;;23.70;88.20;;;;;;4910456;29;20040;-73
2022/08/26 00:18:50;;;;;;;1.55;0.10;;;24.00;85.80;;;;;;4916670;29;20120;-73
2022/08/26 00:21:17;;;;;;;0.20;0.10;;;23.90;86.40;;;;;;4911562;29;20024;-73
2022/08/26 00:23:45;;;;;;;0.10;0.00;;;24.10;85.50;;;;;;4917209;29;20036;-74
2022/08/26 00:26:13;;;;;;;0.13;0.10;;;24.00;84.90;;;;;;4914517;29;20211;-73
2022/08/26 00:28:40;;;;;;;0.57;0.20;;;24.20;86.90;;;;;;4916694;29;20506;-73
2022/08/26 00:31:08;;;;;;;0.68;0.10;;;24.40;86.70;;;;;;4914530;29;20036;-74
2022/08/26 00:33:37;;;;;;;0.73;0.22;;;25.00;85.00;;;;;;4916355;29;20486;-72
2022/08/26 00:36:05;;;;;;;0.38;0.20;;;25.50;83.10;;;;;;4912586;29;20135;-72
2022/08/26 00:38:32;;;;;;;0.73;0.20;;;25.70;83.10;;;;;;4916472;29;20486;-73
2022/08/26 00:41:00;;;;;;;0.95;0.10;;;25.70;82.70;;;;;;4915022;29;20028;-74
2022/08/26 00:43:29;;;;;;;0.50;0.17;;;25.90;83.10;;;;;;4916379;29;20273;-74
2022/08/26 00:45:59;;;;;;;0.35;0.20;;;26.20;82.80;;;;;;4913677;29;20078;-74
2022/08/26 00:48:29;;;;;;;1.02;0.35;;;26.30;82.80;;;;;;4916171;29;20032;-74
2022/08/26 00:51:06;;;;;;;1.60;0.30;;;26.10;82.50;;;;;;4914479;29;20032;-74
2022/08/26 00:53:38;;;;;;;0.32;0.10;;;26.10;82.40;;;;;;4915844;29;20024;-74
2022/08/26 00:56:48;;;;;;;0.05;0.03;;;25.80;82.90;;;;;;4913987;29;20020;-74
2022/08/26 00:59:17;;;;;;;0.40;0.17;;;24.80;83.10;;;;;;4905804;29;20106;-74
2022/08/26 01:01:45;;;;;;;1.85;0.43;;;23.60;85.40;;;;;;4914260;29;20062;-74
2022/08/26 01:04:15;;;;;;;0.85;0.25;;;22.90;86.60;;;;;;4915942;29;20329;-74
2022/08/26 01:06:43;;;;;;;0.80;0.40;;;22.50;87.90;;;;;;4912649;29;20031;-74
2022/08/26 01:09:11;;;;;;;0.65;0.15;;;21.90;89.80;;;;;;4914350;29;20056;-75
2022/08/26 01:11:41;;;;;;;1.13;0.15;;;21.60;90.00;;;;;;4914145;29;20076;-73
2022/08/26 01:14:11;;;;;;;0.50;0.13;;;21.30;90.60;;;;;;4915183;29;20127;-74
2022/08/26 01:16:38;;;;;;;1.35;0.20;;;20.90;90.60;;;;;;4911926;29;20433;-74
2022/08/26 01:19:30;;;;;;;2.05;0.20;;;20.60;91.30;;;;;;4915581;29;20121;-74
2022/08/26 01:22:08;;;;;;;1.13;0.20;;;20.40;91.60;;;;;;4913057;29;20130;-73
2022/08/26 01:24:37;;;;;;;1.25;1.15;;;20.40;91.60;;;;;;4915572;29;20111;-73
2022/08/26 01:27:08;;;;;;;0.30;0.20;;;20.40;91.30;;;;;;4898285;29;20033;-73
2022/08/26 01:29:38;;;;;;;0.17;0.10;;;20.40;91.50;;;;;;4896575;29;20036;-74
2022/08/26 01:32:10;;;;;;;0.63;0.20;;;20.30;91.90;;;;;;4903215;29;22350;-74
2022/08/26 01:34:39;;;;;;;1.13;0.35;;;20.10;92.00;;;;;;4915415;29;20047;-73
2022/08/26 01:37:22;;;;;;;1.13;0.13;;;19.90;92.10;;;;;;4913658;29;20031;-73
2022/08/26 01:39:52;;;;;;;0.22;0.00;;;20.00;92.20;;;;;;4913991;29;20123;-74
2022/08/26 01:42:22;;;;;;;0.30;0.10;;;19.90;92.50;;;;;;4914526;29;20096;-74
2022/08/26 01:45:24;;;;;;;0.47;0.10;;;20.00;92.50;;;;;;4914553;29;20138;-74
2022/08/26 01:47:55;;;;;;;1.15;0.10;;;19.90;92.50;;;;;;4884327;29;20499;-74
2022/08/26 01:50:26;;;;;;;1.35;0.08;;;20.00;92.60;;;;;;4912143;29;20130;-74
2022/08/26 01:52:55;;;;;;;0.55;0.15;;;19.90;92.60;;;;;;4914942;29;20036;-73
2022/08/26 01:55:23;;;;;;;2.33;0.10;;;19.80;92.90;;;;;;4912633;29;20036;-74
2022/08/26 01:57:54;;;;;;;0.85;0.60;;;19.70;93.30;;;;;;4914792;29;20036;-75
2022/08/26 02:00:22;;;;;;;2.30;0.13;;;19.60;93.30;;;;;;4910059;29;20361;-74
2022/08/26 02:03:15;;;;;;;1.85;0.20;;;19.40;93.00;;;;;;4895538;29;20036;-74
2022/08/26 02:05:46;;;;;;;0.32;0.00;;;19.40;93.40;;;;;;4902237;29;20040;-74
2022/08/26 02:08:16;;;;;;;0.43;0.10;;;19.40;93.50;;;;;;4913093;29;20256;-74
2022/08/26 02:10:44;;;;;;;1.38;0.10;;;19.70;93.70;;;;;;4913093;29;20047;-74
2022/08/26 02:13:12;;;;;;;3.70;0.70;;;19.80;93.20;;;;;;4914847;29;20113;-74
2022/08/26 02:15:44;;;;;;;2.75;0.10;;;19.80;93.60;;;;;;4910201;29;20072;-74
2022/08/26 02:18:12;;;;;;;0.32;0.10;;;19.80;93.00;;;;;;4914118;29;20542;-74
2022/08/26 02:20:40;;;;;;;0.57;0.08;;;19.70;93.00;;;;;;4912370;29;20032;-72
2022/08/26 02:23:07;;;;;;;0.50;0.10;;;19.40;93.50;;;;;;4915272;29;20099;-74
2022/08/26 02:26:08;;;;;;;1.63;0.30;;;19.20;93.90;;;;;;4913287;29;20042;-74
2022/08/26 02:28:55;;;;;;;1.35;0.15;;;19.10;94.60;;;;;;4914423;29;20423;-73
2022/08/26 02:31:23;;;;;;;1.83;0.28;;;18.90;94.30;;;;;;4911270;29;20032;-72
2022/08/26 02:33:50;;;;;;;0.30;0.10;;;18.80;94.20;;;;;;4912936;29;20036;-73
2022/08/26 02:36:25;;;;;;;0.65;0.10;;;19.00;94.20;;;;;;4912308;29;20048;-73
2022/08/26 02:38:53;;;;;;;4.90;0.93;;;19.20;94.50;;;;;;4914246;29;20158;-73
2022/08/26 02:41:21;;;;;;;0.82;0.15;;;19.60;94.50;;;;;;4902704;29;20164;-72
2022/08/26 02:43:48;;;;;;;1.75;0.45;;;19.50;94.50;;;;;;4895122;29;20036;-73
2022/08/26 02:46:15;;;;;;;0.75;0.20;;;19.30;94.50;;;;;;4904892;29;20497;-74
2022/08/26 02:48:43;;;;;;;1.35;0.10;;;19.10;94.50;;;;;;4914090;29;20391;-73
2022/08/26 02:51:10;;;;;;;0.95;0.10;;;18.80;94.90;;;;;;4912055;29;20051;-74
2022/08/26 02:53:38;;;;;;;0.30;0.00;;;18.50;95.40;;;;;;4914817;29;20031;-74
2022/08/26 02:56:08;;;;;;;0.47;0.20;;;18.20;95.40;;;;;;4912439;29;20032;-73
2022/08/26 02:58:36;;;;;;;0.52;0.13;;;18.10;95.70;;;;;;4932777;29;20031;-73
2022/08/26 03:01:03;;;;;;;0.43;0.15;;;18.10;96.10;;;;;;4920536;29;20059;-74
2022/08/26 03:03:31;;;;;;;0.65;0.47;;;18.10;96.30;;;;;;4912493;29;20039;-74
2022/08/26 03:05:58;;;;;;;1.40;0.50;;;18.10;96.40;;;;;;4912081;29;20121;-73
2022/08/26 03:08:25;;;;;;;1.75;0.10;;;18.20;96.30;;;;;;4913366;29;20044;-73
2022/08/26 03:10:53;;;;;;;0.95;0.13;;;18.30;96.40;;;;;;4912020;29;20127;-74
2022/08/26 03:13:20;;;;;;;1.55;0.20;;;18.40;96.20;;;;;;4914557;29;20035;-74
2022/08/26 03:15:48;;;;;;;0.90;0.40;;;18.40;95.90;;;;;;4908371;29;20036;-74
2022/08/26 03:18:15;;;;;;;1.20;0.10;;;18.50;95.70;;;;;;4913931;29;20034;-73
2022/08/26 03:20:43;;;;;;;1.02;0.43;;;18.60;96.10;;;;;;4907096;29;20491;-74
2022/08/26 03:23:11;;;;;;;0.30;0.10;;;18.80;96.10;;;;;;4909902;29;20036;-74
2022/08/26 03:25:38;;;;;;;2.08;0.10;;;18.90;95.50;;;;;;4912299;29;20028;-75
2022/08/26 03:28:06;;;;;;;0.15;0.10;;;19.20;95.50;;;;;;4913155;29;20031;-74
2022/08/26 03:30:40;;;;;;;0.20;0.10;;;19.30;94.80;;;;;;4912222;29;20519;-74
2022/08/26 03:33:11;;;;;;;1.58;0.08;;;19.50;94.90;;;;;;4913695;29;20411;-73
2022/08/26 03:35:42;;;;;;;0.00;0.00;;;19.70;94.50;;;;;;4912145;29;20028;-74
2022/08/26 03:38:10;;;;;;;1.73;0.20;;;19.80;94.50;;;;;;4913474;29;20025;-74
2022/08/26 03:40:38;;;;;;;1.85;0.22;;;19.80;94.60;;;;;;4912081;29;20036;-74
2022/08/26 03:43:07;;;;;;;1.33;0.20;;;19.80;94.80;;;;;;4913878;29;20107;-74
2022/08/26 03:45:35;;;;;;;2.85;1.55;;;19.80;94.60;;;;;;4915743;29;20115;-74
2022/08/26 03:48:03;;;;;;;0.50;0.30;;;19.80;94.30;;;;;;4923359;29;20050;-74
2022/08/26 03:50:31;;;;;;;0.10;0.10;;;19.70;94.40;;;;;;4928047;29;20036;-74
2022/08/26 03:52:58;;;;;;;0.40;0.20;;;19.70;94.40;;;;;;4917115;29;20031;-74
2022/08/26 03:55:31;;;;;;;3.13;0.22;;;19.60;94.60;;;;;;4915202;29;20502;-74
2022/08/26 03:57:59;;;;;;;2.17;0.20;;;19.50;94.20;;;;;;4906788;29;20073;-74
2022/08/26 04:00:27;;;;;;;1.27;0.10;;;19.30;94.60;;;;;;4898146;29;20034;-75
2022/08/26 04:02:55;;;;;;;0.40;0.10;;;19.10;95.20;;;;;;4897842;29;20037;-75
2022/08/26 04:05:23;;;;;;;3.40;0.20;;;18.90;95.50;;;;;;4912833;29;20064;-74
2022/08/26 04:07:51;;;;;;;0.60;0.22;;;18.80;95.60;;;;;;4916734;29;20107;-73
2022/08/26 04:10:23;;;;;;;0.73;0.20;;;18.70;95.80;;;;;;4913663;29;20067;-74
2022/08/26 04:12:52;;;;;;;1.30;0.20;;;18.70;96.10;;;;;;4916815;29;20381;-74
2022/08/26 04:15:20;;;;;;;3.45;0.40;;;18.70;96.10;;;;;;4914500;29;20031;-75
2022/08/26 04:17:48;;;;;;;0.90;0.35;;;18.70;95.90;;;;;;4916211;29;20032;-74
2022/08/26 04:20:17;;;;;;;2.28;0.25;;;18.80;95.90;;;;;;4914291;29;20115;-75
2022/08/26 04:22:45;;;;;;;0.88;0.20;;;18.80;95.60;;;;;;4916943;29;20075;-75
2022/08/26 04:25:13;;;;;;;0.63;0.40;;;18.80;95.60;;;;;;4911982;29;20034;-73
2022/08/26 04:27:40;;;;;;;0.50;0.20;;;18.80;95.60;;;;;;4916254;29;20047;-74
2022/08/26 04:30:09;;;;;;;0.73;0.20;;;18.90;95.40;;;;;;4913011;29;20047;-76
2022/08/26 04:32:37;;;;;;;1.85;0.50;;;18.80;95.10;;;;;;4897215;29;20029;-74
2022/08/26 04:35:05;;;;;;;1.05;0.47;;;18.80;95.30;;;;;;4897713;29;20276;-75
2022/08/26 04:37:33;;;;;;;2.17;0.30;;;18.80;95.40;;;;;;4897501;29;20039;-75
2022/08/26 04:40:01;;;;;;;2.60;0.55;;;18.80;95.20;;;;;;4910000;29;20060;-75
2022/08/26 04:42:28;;;;;;;0.80;0.30;;;18.70;95.30;;;;;;4916058;29;20030;-74
2022/08/26 04:44:56;;;;;;;3.17;0.38;;;18.70;95.50;;;;;;4914436;29;20523;-74
2022/08/26 04:47:23;;;;;;;1.40;0.45;;;18.60;95.20;;;;;;4896929;29;20048;-74
2022/08/26 04:49:55;;;;;;;2.65;0.45;;;18.50;95.80;;;;;;4896265;29;20052;-74
2022/08/26 04:52:23;;;;;;;0.60;0.28;;;18.40;95.90;;;;;;4897197;29;20028;-74
2022/08/26 04:54:50;;;;;;;4.30;0.40;;;18.40;95.80;;;;;;4896020;29;20028;-74
2022/08/26 04:57:18;;;;;;;1.30;0.85;;;18.50;96.20;;;;;;4916422;29;20522;-75
2022/08/26 04:59:45;;;;;;;2.05;0.40;;;18.50;95.90;;;;;;4915413;29;20111;-74
2022/08/26 05:02:13;;;;;;;1.90;0.30;;;18.60;95.80;;;;;;4912922;29;20120;-74
2022/08/26 05:04:42;;;;;;;1.17;0.22;;;18.60;95.60;;;;;;4915628;29;20035;-73
2022/08/26 05:07:10;;;;;;;3.65;0.25;;;18.60;95.50;;;;;;4913669;29;20040;-75
2022/08/26 05:09:39;;;;;;;1.55;0.70;;;18.60;96.10;;;;;;4915662;29;20365;-74
2022/08/26 05:12:07;;;;;;;1.23;0.40;;;18.60;95.80;;;;;;4913128;29;20442;-74
2022/08/26 05:14:34;;;;;;;2.70;0.35;;;18.70;95.50;;;;;;4933349;29;20059;-75
2022/08/26 05:17:02;;;;;;;2.90;0.20;;;18.60;95.80;;;;;;4913309;29;20036;-75
2022/08/26 05:19:30;;;;;;;1.58;0.52;;;18.60;95.60;;;;;;4915356;29;20036;-75
2022/08/26 05:21:58;;;;;;;0.80;0.17;;;18.60;95.60;;;;;;4913331;29;20328;-74
2022/08/26 05:24:25;;;;;;;2.45;0.20;;;18.60;95.60;;;;;;4914856;29;20063;-75
2022/08/26 05:26:52;;;;;;;3.97;0.77;;;18.70;96.00;;;;;;4900425;29;20401;-75
2022/08/26 05:29:20;;;;;;;1.55;0.30;;;18.70;95.90;;;;;;4902280;29;20111;-77
2022/08/26 05:31:51;;;;;;;1.58;0.30;;;18.60;95.40;;;;;;4913214;29;20496;-77
2022/08/26 05:34:19;;;;;;;1.88;0.28;;;18.60;95.80;;;;;;4913818;29;20036;-76
2022/08/26 05:36:47;;;;;;;1.05;0.28;;;18.70;95.90;;;;;;4912913;29;20126;-75
2022/08/26 05:39:15;;;;;;;2.67;0.35;;;18.60;95.70;;;;;;4915565;29;20067;-76
2022/08/26 05:41:42;;;;;;;1.55;0.90;;;18.60;96.10;;;;;;4900351;29;20020;-76
2022/08/26 05:44:13;;;;;;;2.45;0.25;;;18.60;96.30;;;;;;4896031;29;20039;-78
2022/08/26 05:46:43;;;;;;;4.57;0.82;;;18.50;96.10;;;;;;4909974;29;20114;-78
2022/08/26 05:49:12;;;;;;;2.33;0.40;;;18.40;96.20;;;;;;4915007;29;20036;-77
2022/08/26 05:51:43;;;;;;;1.02;0.40;;;18.40;96.30;;;;;;4913615;29;20479;-76
2022/08/26 05:54:11;;;;;;;0.65;0.40;;;18.30;96.60;;;;;;4913557;29;20059;-77
2022/08/26 05:56:40;;;;;;;1.65;0.38;;;18.20;96.60;;;;;;4913865;29;20149;-76
2022/08/26 05:59:13;;;;;;;6.13;0.43;;;18.20;96.80;;;;;;4915266;29;20196;-77
2022/08/26 06:01:42;;;;;;;4.90;0.90;;;18.10;96.80;;;;;;4913078;29;20094;-77
2022/08/26 06:04:10;;;;;;;5.97;0.75;;;18.10;96.90;;;;;;4921820;29;20028;-76
2022/08/26 06:06:40;;;;;;;0.95;0.43;;;18.00;96.90;;;;;;4916311;29;20032;-77
2022/08/26 06:09:09;;;;;;;1.70;0.30;;;18.00;96.90;;;;;;4914809;29;20052;-75
2022/08/26 06:11:36;;;;;;;2.65;0.40;;;17.90;96.80;;;;;;4912743;29;20371;-74
2022/08/26 06:14:05;;;;;;;1.02;0.50;;;17.80;97.00;;;;;;4914029;29;20218;-75
2022/08/26 06:16:37;;;;;;;0.43;0.30;;;17.80;97.30;;;;;;4911973;29;20044;-74
2022/08/26 06:19:06;;;;;;;3.38;0.38;;;17.70;97.40;;;;;;4912388;29;20036;-75
2022/08/26 06:21:37;;;;;;;4.07;0.40;;;17.70;97.40;;;;;;4909448;29;20043;-74
2022/08/26 06:27:00;;;;;;;1.55;0.32;;;17.60;97.20;;;;;;4912900;29;20044;-75
2022/08/26 06:29:30;;;;;;;3.63;1.23;;;17.50;97.30;;;;;;4914057;29;20100;-74
2022/08/26 06:31:57;;;;;;;1.33;0.43;;;17.50;97.00;;;;;;4911674;29;20036;-74
2022/08/26 06:34:27;;;;;;;2.92;0.50;;;17.40;97.20;;;;;;4914126;29;20024;-73
2022/08/26 06:36:57;;;;;;;3.78;0.40;;;17.40;97.50;;;;;;4912704;29;20099;-74
2022/08/26 06:39:24;;;;;;;3.72;0.60;;;17.40;97.90;;;;;;4914874;29;20032;-74
2022/08/26 06:41:52;;;;;;;3.65;0.40;;;17.30;98.00;;;;;;4912387;29;20147;-74
2022/08/26 06:44:19;;;;;;;0.65;0.30;;;17.30;98.30;;;;;;4913961;29;20020;-74
2022/08/26 06:46:47;;;;;;;3.13;0.60;;;17.20;98.30;;;;;;4911774;29;20103;-75
2022/08/26 06:49:14;;;;;;;3.22;0.40;;;17.20;98.40;;;;;;4913690;29;20052;-74
2022/08/26 06:51:42;;;;;;;3.25;0.60;;;17.10;98.60;;;;;;4912411;29;20029;-74
2022/08/26 06:54:10;;;;;;;3.90;0.52;;;17.00;98.70;;;;;;4913908;29;20056;-74
2022/08/26 06:56:41;;;;;;;1.83;0.30;;;17.00;98.90;;;;;;4912913;29;20115;-76
2022/08/26 06:59:11;;;;;;;3.40;0.40;;;16.80;99.00;;;;;;4914100;29;20024;-75
2022/08/26 07:01:43;;;;;;;0.70;0.28;;;16.70;99.20;;;;;;4912145;29;20044;-74
2022/08/26 07:04:15;;;;;;;2.80;0.57;;;16.60;99.30;;;;;;4913473;29;20028;-74
2022/08/26 07:06:47;;;;;;;0.85;0.68;;;16.60;99.30;;;;;;4912325;29;20032;-74
2022/08/26 07:09:16;;;;;;;0.70;0.20;;;16.40;99.20;;;;;;4913439;29;20056;-75
2022/08/26 07:11:44;;;;;;;5.72;0.65;;;16.40;99.30;;;;;;4913333;29;20095;-75
2022/08/26 07:14:12;;;;;;;2.22;0.25;;;16.30;99.30;;;;;;4913700;29;20471;-75
2022/08/26 07:16:40;;;;;;;2.60;0.40;;;16.20;99.30;;;;;;4908019;29;20622;-74
2022/08/26 07:19:07;;;;;;;0.77;0.35;;;16.10;99.40;;;;;;4916570;29;20032;-75
2022/08/26 07:21:36;;;;;;;1.55;0.50;;;16.10;99.60;;;;;;4915384;29;20119;-76
2022/08/26 07:24:04;;;;;;;2.25;0.32;;;16.00;99.80;;;;;;4917109;29;20040;-73
2022/08/26 07:26:31;;;;;;;1.42;0.32;;;16.00;99.90;;;;;;4915665;29;20450;-74
2022/08/26 07:28:59;;;;;;;1.65;0.35;;;16.00;99.90;;;;;;4918792;29;20056;-75
2022/08/26 07:31:30;;;;;;;0.95;0.30;;;15.90;99.90;;;;;;4915521;29;20123;-76
2022/08/26 07:33:58;;;;;;;1.70;0.30;;;15.90;99.90;;;;;;4917723;29;20060;-75
2022/08/26 07:36:27;;;;;;;2.30;0.40;;;15.80;99.90;;;;;;4916126;29;20036;-75
2022/08/26 07:38:55;;;;;;;1.15;0.40;;;15.80;99.90;;;;;;4917922;29;20040;-76
2022/08/26 07:41:25;;;;;;;6.28;0.88;;;15.70;99.90;;;;;;4915730;29;20111;-76
2022/08/26 07:43:53;;;;;;;3.35;0.50;;;15.70;99.90;;;;;;4917617;29;20027;-75
2022/08/26 07:46:20;;;;;;;5.20;0.55;;;15.70;99.90;;;;;;4915780;29;20038;-76
2022/08/26 07:48:49;;;;;;;1.67;0.60;;;15.70;99.90;;;;;;4917383;29;20028;-76
2022/08/26 07:51:19;;;;;;;1.63;0.47;;;15.60;99.90;;;;;;4915674;29;20114;-75
2022/08/26 07:53:46;;;;;;;0.95;0.95;;;15.60;99.90;;;;;;4917325;29;20066;-75
2022/08/26 07:56:14;;;;;;;1.98;0.20;;;15.60;99.90;;;;;;4914920;29;20052;-76
2022/08/26 07:58:42;;;;;;;0.98;0.40;;;15.50;99.90;;;;;;4917164;29;20024;-74
2022/08/26 08:01:10;;;;;;;0.95;0.32;;;15.50;99.90;;;;;;4914554;29;20028;-76
2022/08/26 08:03:37;;;;;;;3.13;0.50;;;15.40;99.90;;;;;;4922515;29;20107;-76
2022/08/26 08:06:05;;;;;;;3.88;0.47;;;15.40;99.90;;;;;;4908281;29;20135;-75
2022/08/26 08:08:34;;;;;;;3.92;0.95;;;15.40;99.90;;;;;;4917274;29;20517;-76
2022/08/26 08:11:02;;;;;;;5.18;0.40;;;15.30;99.90;;;;;;4915491;29;20490;-77
2022/08/26 08:13:30;;;;;;;2.75;1.08;;;15.30;99.90;;;;;;4917407;29;20028;-74
2022/08/26 08:15:57;;;;;;;3.63;0.40;;;15.30;99.90;;;;;;4914435;29;20369;-75
2022/08/26 08:18:27;;;;;;;1.92;0.40;;;15.20;99.90;;;;;;4917123;29;20024;-76
2022/08/26 08:20:55;;;;;;;4.28;1.00;;;15.20;99.90;;;;;;4916254;29;20462;-74
2022/08/26 08:23:22;;;;;;;4.85;1.15;;;15.20;99.90;;;;;;4917199;29;20494;-76
2022/08/26 08:25:50;;;;;;;3.22;0.50;;;15.20;99.90;;;;;;4912018;29;20133;-77
2022/08/26 08:28:17;;;;;;;3.40;0.50;;;15.20;99.90;;;;;;4916755;29;20032;-75
2022/08/26 08:30:45;;;;;;;3.78;0.70;;;15.20;99.90;;;;;;4908498;29;20131;-74
2022/08/26 08:33:12;;;;;;;3.10;0.60;;;15.10;99.90;;;;;;4898461;29;20055;-75
2022/08/26 08:35:41;;;;;;;2.95;0.47;;;15.00;99.90;;;;;;4904004;29;20055;-75
2022/08/26 08:38:08;;;;;;;4.32;0.60;;;15.00;99.90;;;;;;4917114;29;20083;-75
2022/08/26 08:40:40;;;;;;;2.90;0.70;;;15.00;99.90;;;;;;4915282;29;20024;-76
2022/08/26 08:43:32;;;;;;;4.63;1.00;;;15.00;99.90;;;;;;4916329;29;20039;-76
2022/08/26 08:46:09;;;;;;;5.95;0.90;;;14.90;99.90;;;;;;4914969;29;20043;-77
2022/08/26 08:48:48;;;;;;;2.35;0.98;;;14.90;99.90;;;;;;4916734;29;20044;-76
2022/08/26 08:51:41;;;;;;;4.90;0.90;;;14.90;99.90;;;;;;4915176;29;20396;-76
2022/08/26 08:54:09;;;;;;;2.67;0.60;;;14.80;99.90;;;;;;4916545;29;20120;-77
2022/08/26 08:56:39;;;;;;;5.57;0.95;;;14.80;99.90;;;;;;4914604;29;20024;-75
2022/08/26 08:59:15;;;;;;;6.20;0.88;;;14.70;99.90;;;;;;4916048;29;20036;-75
2022/08/26 09:01:55;;;;;;;5.25;0.90;;;14.70;99.90;;;;;;4911837;29;20028;-76
2022/08/26 09:04:53;;;;;;;5.13;0.82;;;14.70;99.90;;;;;;4916460;29;20042;-76
2022/08/26 09:07:30;;;;;;;10.10;1.15;;;14.60;99.90;;;;;;4915297;29;20047;-76
2022/08/26 09:10:08;;;;;;;3.60;0.77;;;14.50;99.90;;;;;;4913768;29;20062;-74
2022/08/26 09:12:35;;;;;;;2.70;0.60;;;14.40;99.90;;;;;;4934923;29;20035;-79
2022/08/26 09:15:03;;;;;;;3.92;0.77;;;14.30;99.90;;;;;;4923533;29;20036;-77
2022/08/26 09:18:07;;;;;;;4.85;0.98;;;14.30;99.90;;;;;;4916072;29;20382;-77
2022/08/26 09:20:54;;;;;;;2.58;0.80;;;14.20;99.90;;;;;;4913923;29;20031;-76
2022/08/26 09:23:22;;;;;;;5.85;0.70;;;14.20;99.90;;;;;;4915981;29;20036;-74
2022/08/26 09:26:02;;;;;;;5.55;0.85;;;14.10;99.90;;;;;;4911512;29;20067;-76
2022/08/26 09:28:31;;;;;;;3.17;0.70;;;14.10;99.90;;;;;;4916064;29;20190;-77
2022/08/26 09:31:23;;;;;;;6.47;0.70;;;14.00;99.90;;;;;;4912776;29;20080;-77
2022/08/26 09:34:24;;;;;;;6.50;1.50;;;13.90;99.90;;;;;;4903929;29;20036;-76
2022/08/26 09:36:59;;;;;;;7.20;1.02;;;13.80;99.90;;;;;;4907007;29;20403;-75
2022/08/26 09:39:37;;;;;;;4.70;1.73;;;13.80;99.90;;;;;;4913788;29;20039;-77
2022/08/26 09:42:11;;;;;;;5.35;1.27;;;13.70;99.90;;;;;;4911917;29;20028;-75
2022/08/26 09:44:58;;;;;;;4.85;1.90;;;13.60;99.90;;;;;;4915694;29;20024;-76
2022/08/26 09:47:51;;;;;;;3.38;1.48;;;13.60;99.90;;;;;;4896621;29;20037;-76
2022/08/26 09:50:24;;;;;;;3.70;2.28;;;13.50;99.90;;;;;;4898939;29;20044;-75
2022/08/26 09:53:13;;;;;;;4.75;1.70;;;13.50;99.90;;;;;;4914998;29;20459;-76
2022/08/26 09:55:43;;;;;;;6.07;1.50;;;13.50;99.90;;;;;;4913607;29;20111;-77
2022/08/26 09:58:15;;;;;;;4.35;1.40;;;13.50;99.90;;;;;;4914812;29;20032;-76
2022/08/26 10:00:57;;;;;;;7.57;1.77;;;13.50;99.90;;;;;;4913227;29;20548;-76
2022/08/26 10:03:31;;;;;;;3.83;1.60;;;13.50;99.90;;;;;;4914968;29;20040;-76
2022/08/26 10:06:02;;;;;;;5.35;1.40;;;13.50;99.90;;;;;;4912690;29;20024;-75
2022/08/26 10:08:42;;;;;;;6.93;1.48;;;13.50;99.90;;;;;;4914881;29;20174;-74
2022/08/26 10:11:33;;;;;;;6.80;1.73;;;13.50;99.90;;;;;;4913612;29;20112;-78
2022/08/26 10:14:23;;;;;;;3.40;0.80;;;13.40;99.90;;;;;;4914394;29;20080;-76
2022/08/26 10:17:25;;;;;;;4.15;1.20;;;13.30;99.90;;;;;;4909743;29;20068;-77
2022/08/26 10:20:16;;;;;;;4.82;1.08;;;13.20;99.90;;;;;;4914005;29;20042;-77
2022/08/26 10:23:05;;;;;;;4.78;1.73;;;13.10;99.90;;;;;;4895837;29;20028;-78
2022/08/26 10:26:03;;;;;;;2.92;1.48;;;13.10;99.90;;;;;;4900628;29;20045;-76
2022/08/26 10:29:00;;;;;;;6.65;2.35;;;13.10;99.90;;;;;;4908407;29;20039;-76
2022/08/26 10:31:32;;;;;;;6.25;2.30;;;13.00;99.90;;;;;;4912851;29;20048;-77
2022/08/26 10:34:00;;;;;;;7.93;2.20;;;13.00;99.90;;;;;;4914629;29;20036;-76
2022/08/26 10:36:50;;;;;;;6.78;2.92;;;13.10;99.90;;;;;;4913618;29;20082;-78
2022/08/26 10:39:35;;;;;;;8.52;2.97;;;13.10;99.90;;;;;;4914797;29;20102;-77
2022/08/26 10:42:17;;;;;;;6.75;2.42;;;13.20;99.90;;;;;;4912786;29;20025;-78
2022/08/26 10:44:46;;;;;;;5.70;2.25;;;13.30;99.90;;;;;;4914598;29;20032;-76
2022/08/26 10:47:28;;;;;;;6.18;3.28;;;13.30;99.90;;;;;;4896694;29;20314;-79
2022/08/26 10:49:58;;;;;;;8.63;2.88;;;13.40;99.90;;;;;;4895738;29;20571;-77
2022/08/26 10:52:56;;;;;;;7.35;2.78;;;13.40;99.90;;;;;;4897812;29;20131;-77
2022/08/26 10:55:35;;;;;;;12.32;4.43;;;13.40;99.90;;;;;;4912902;29;20115;-77
2022/08/26 10:58:21;;;;;;;7.20;4.75;;;13.50;99.90;;;;;;4914362;29;20028;-77
2022/08/26 11:03:58;;;;;;;8.65;4.03;;;13.40;99.90;;;;;;4895784;29;20499;-76
2022/08/26 11:06:30;;;;;;;5.05;2.45;;;13.40;99.90;;;;;;4896725;29;20033;-76
2022/08/26 11:09:06;;;;;;;4.63;3.40;;;13.30;99.90;;;;;;4901293;29;20059;-77
2022/08/26 11:11:44;;;;;;;5.72;3.17;;;13.30;99.90;;;;;;4912904;29;20067;-77
2022/08/26 11:14:20;;;;;;;6.35;3.08;;;13.30;99.90;;;;;;4913836;29;20476;-77
2022/08/26 11:16:55;;;;;;;4.30;2.15;;;13.30;99.90;;;;;;4912920;29;20040;-77
2022/08/26 11:19:39;;;;;;;5.72;2.90;;;13.20;99.90;;;;;;4914001;29;20048;-77
2022/08/26 11:22:34;;;;;;;6.40;2.50;;;13.20;99.90;;;;;;4912919;29;20107;-78
2022/08/26 11:25:06;;;;;;;5.47;2.17;;;13.20;99.90;;;;;;4910700;29;20036;-77
2022/08/26 11:27:36;;;;;;;7.78;3.15;;;13.30;99.90;;;;;;4911643;29;20479;-76
2022/08/26 11:30:18;;;;;;;1.60;1.08;;;13.20;99.90;;;;;;4911140;29;20047;-76
2022/08/26 11:32:57;;;;;;;3.00;1.40;;;13.20;99.90;;;;;;4895538;29;20036;-78
2022/08/26 11:35:28;;;;;;;1.90;1.10;;;13.20;99.90;;;;;;4898678;29;20551;-76
2022/08/26 11:38:04;;;;;;;3.15;1.00;;;13.20;99.90;;;;;;4914341;29;20032;-76
2022/08/26 11:40:34;;;;;;;;;;;13.20;99.90;;;;;;4911809;29;20032;-76
2022/08/26 11:43:24;;;;;;;2.05;1.10;;;13.10;99.90;;;;;;4914037;29;20003;-78
2022/08/26 11:46:06;;;;;;;2.17;1.30;;;13.10;99.90;;;;;;4902307;29;20107;-77
2022/08/26 11:48:36;;;;;;;1.73;0.60;;;13.00;99.90;;;;;;4914183;29;20091;-77
2022/08/26 11:51:09;;;;;;;0.95;0.57;;;13.00;99.90;;;;;;4912329;29;20040;-77
2022/08/26 11:53:43;;;;;;;3.97;0.65;;;13.00;99.90;;;;;;4914152;29;20024;-78
2022/08/26 11:56:17;;;;;;;1.73;0.82;;;13.00;99.90;;;;;;4912957;29;20061;-78
2022/08/26 11:58:46;;;;;;;1.25;0.50;;;13.00;99.90;;;;;;4913878;29;20028;-80
2022/08/26 12:01:31;;;;;;;2.58;1.17;;;13.00;99.90;;;;;;4912730;29;20111;-78
2022/08/26 12:03:59;;;;;;;1.70;0.60;;;13.00;99.90;;;;;;4897266;29;20031;-79
2022/08/26 12:06:36;;;;;;;2.42;0.90;;;13.00;99.90;;;;;;4916035;29;20032;-76
2022/08/26 12:09:10;;;;;;;1.73;0.68;;;13.00;99.90;;;;;;4917531;29;20048;-76
2022/08/26 12:11:38;;;;;;;1.17;0.70;;;13.00;99.90;;;;;;4915354;29;20032;-76
2022/08/26 12:14:27;;;;;;;2.00;0.60;;;13.00;99.90;;;;;;4917024;29;20039;-80
2022/08/26 12:17:07;;;;;;;1.83;0.82;;;13.00;99.90;;;;;;4915608;29;20099;-77
2022/08/26 12:19:34;;;;;;;1.02;0.52;;;13.00;99.90;;;;;;4917355;29;20060;-77
2022/08/26 12:22:25;;;;;;;1.73;0.95;;;13.00;99.90;;;;;;4911792;29;20028;-75
2022/08/26 12:24:54;;;;;;;3.50;0.75;;;13.00;99.90;;;;;;4915051;29;20043;-78
2022/08/26 12:27:26;;;;;;;2.72;0.68;;;12.90;99.90;;;;;;4898022;29;20040;-75
2022/08/26 12:30:21;;;;;;;1.75;0.73;;;12.90;99.90;;;;;;4897567;29;20123;-75
2022/08/26 12:33:04;;;;;;;2.55;1.10;;;12.90;99.90;;;;;;4901123;29;20030;-78
2022/08/26 12:35:33;;;;;;;3.13;1.23;;;12.90;99.90;;;;;;4916524;29;20036;-76
2022/08/26 12:38:01;;;;;;;1.08;0.90;;;12.90;99.90;;;;;;4916843;29;20036;-78
2022/08/26 12:40:42;;;;;;;1.63;0.70;;;12.90;99.90;;;;;;4914882;29;20028;-77
2022/08/26 12:43:11;;;;;;;2.63;1.08;;;12.90;99.90;;;;;;4916405;29;20028;-76
2022/08/26 12:46:03;;;;;;;2.97;1.10;;;12.90;99.90;;;;;;4914559;29;20115;-78
2022/08/26 12:48:34;;;;;;;1.77;0.85;;;12.90;99.90;;;;;;4916309;29;20510;-76
2022/08/26 12:51:05;;;;;;;3.35;1.05;;;12.90;99.90;;;;;;4914781;29;20494;-76
2022/08/26 12:53:40;;;;;;;1.83;0.60;;;12.90;99.90;;;;;;4916956;29;20040;-76
2022/08/26 12:56:28;;;;;;;1.70;1.00;;;12.90;99.90;;;;;;4914924;29;20176;-76
2022/08/26 12:59:17;;;;;;;3.20;1.00;;;12.90;99.90;;;;;;4916266;29;20028;-76
2022/08/26 13:01:45;;;;;;;1.15;0.80;;;12.90;99.90;;;;;;4914605;29;20115;-77
2022/08/26 13:04:35;;;;;;;3.00;0.82;;;12.90;99.90;;;;;;4915983;29;20028;-76
2022/08/26 13:07:25;;;;;;;4.55;0.80;;;12.90;99.90;;;;;;4914461;29;20068;-77
2022/08/26 13:09:55;;;;;;;3.60;0.70;;;12.80;99.90;;;;;;4915040;29;20079;-76
2022/08/26 13:12:30;;;;;;;0.95;0.60;;;12.90;99.90;;;;;;4897565;29;20484;-75
2022/08/26 13:15:00;;;;;;;2.13;0.50;;;12.90;99.90;;;;;;4898189;29;20422;-76
2022/08/26 13:17:28;;;;;;;1.55;0.55;;;12.90;99.90;;;;;;4911241;29;20032;-78
2022/08/26 13:19:57;;;;;;;1.08;0.57;;;12.90;99.90;;;;;;4914080;29;20076;-75
2022/08/26 13:22:25;;;;;;;1.35;0.70;;;12.90;99.90;;;;;;4896979;29;20525;-77